Time;durP1;ratioP1;P1;durP2;ratioP2;P2;SDS_P1;SDS_P2;PMS_P1;PMS_P2;Temp;Humidity;BMP_temperature;BMP_pressure;BME280_temperature;BME280_humidity;BME280_pressure;Samples;Min_cycle;Max_cycle;Signal;HPM_P1;HPM_P2
2022/05/16 00:01:04;;;;;;;4.78;1.42;;;14.30;96.90;;;;;;5054630;28;20123;-68
2022/05/16 00:03:30;;;;;;;5.30;1.00;;;14.20;97.50;;;;;;5070882;28;20040;-68
2022/05/16 00:05:55;;;;;;;3.10;1.55;;;14.20;97.10;;;;;;5038409;28;20036;-68
2022/05/16 00:08:21;;;;;;;1.33;0.80;;;14.30;97.00;;;;;;5043182;28;20109;-68
2022/05/16 00:10:46;;;;;;;2.13;1.10;;;14.20;97.10;;;;;;5041529;28;20044;-68
2022/05/16 00:13:12;;;;;;;1.60;0.80;;;14.20;97.10;;;;;;5037288;28;20044;-68
2022/05/16 00:15:38;;;;;;;3.78;1.15;;;14.10;97.10;;;;;;5049885;28;20086;-68
2022/05/16 00:18:05;;;;;;;4.15;1.55;;;14.10;97.10;;;;;;5037521;28;20432;-68
2022/05/16 00:20:30;;;;;;;3.03;1.10;;;14.10;97.10;;;;;;5068000;28;20037;-68
2022/05/16 00:22:56;;;;;;;5.53;1.30;;;14.10;97.10;;;;;;5051444;28;20936;-68
2022/05/16 00:25:22;;;;;;;2.85;0.90;;;14.10;97.10;;;;;;5053617;28;20035;-68
2022/05/16 00:27:48;;;;;;;4.40;1.10;;;14.10;97.10;;;;;;5053207;28;20102;-68
2022/05/16 00:30:15;;;;;;;5.47;1.35;;;14.10;97.10;;;;;;5076309;28;20105;-68
2022/05/16 00:32:41;;;;;;;3.03;1.30;;;14.10;97.20;;;;;;5052164;28;20046;-69
2022/05/16 00:35:09;;;;;;;1.80;0.82;;;14.00;97.20;;;;;;5067685;28;20044;-68
2022/05/16 00:37:35;;;;;;;2.95;1.08;;;14.00;97.40;;;;;;5051129;28;20152;-68
2022/05/16 00:40:00;;;;;;;6.55;1.10;;;14.00;97.20;;;;;;5060568;28;20040;-68
2022/05/16 00:42:26;;;;;;;3.13;1.10;;;14.00;97.10;;;;;;5050059;28;20436;-68
2022/05/16 00:44:52;;;;;;;2.58;1.05;;;14.00;97.10;;;;;;5050087;28;20033;-68
2022/05/16 00:47:17;;;;;;;3.67;0.95;;;14.00;97.10;;;;;;5069092;28;20032;-68
2022/05/16 00:49:46;;;;;;;2.40;0.93;;;14.00;97.10;;;;;;5056037;28;20107;-68
2022/05/16 00:52:17;;;;;;;1.85;1.13;;;13.90;97.20;;;;;;5069666;28;20425;-69
2022/05/16 00:54:49;;;;;;;2.83;1.00;;;14.00;97.30;;;;;;5038678;28;20102;-68
2022/05/16 00:57:18;;;;;;;1.60;0.70;;;13.90;97.30;;;;;;5074057;28;20043;-68
2022/05/16 00:59:52;;;;;;;1.65;0.90;;;13.90;97.10;;;;;;5050558;28;20084;-68
2022/05/16 01:05:06;;;;;;;2.33;1.08;;;13.90;97.00;;;;;;5049334;28;20041;-68
2022/05/16 01:07:38;;;;;;;1.92;1.00;;;13.90;97.10;;;;;;5049838;28;20044;-68
2022/05/16 01:10:05;;;;;;;2.83;1.05;;;13.80;97.00;;;;;;5052276;28;20049;-68
2022/05/16 01:12:37;;;;;;;1.38;0.80;;;13.80;97.00;;;;;;5041765;28;20639;-68
2022/05/16 01:15:08;;;;;;;3.58;1.10;;;13.80;96.90;;;;;;5047426;28;20067;-68
2022/05/16 01:17:33;;;;;;;1.35;0.70;;;13.80;97.00;;;;;;5050154;28;20494;-68
2022/05/16 01:19:59;;;;;;;4.30;1.15;;;13.90;96.90;;;;;;5047190;28;20048;-69
2022/05/16 01:22:38;;;;;;;2.55;0.85;;;13.80;96.80;;;;;;5050513;28;20100;-69
2022/05/16 01:25:13;;;;;;;2.42;1.08;;;13.80;97.50;;;;;;5052732;28;20082;-68
2022/05/16 01:27:41;;;;;;;3.85;0.80;;;13.80;97.40;;;;;;5045587;28;20029;-69
2022/05/16 01:30:08;;;;;;;2.38;0.98;;;13.70;96.80;;;;;;5049601;28;20041;-68
2022/05/16 01:32:33;;;;;;;2.58;0.80;;;13.70;96.80;;;;;;5058916;28;20040;-69
2022/05/16 01:34:59;;;;;;;4.30;1.02;;;13.70;96.70;;;;;;5047351;28;20095;-69
2022/05/16 01:38:18;;;;;;;2.38;1.23;;;13.70;96.70;;;;;;5048046;28;20051;-68
2022/05/16 01:40:10;;;;;;;6.38;1.60;;;13.70;96.70;;;;;;5049832;28;20036;-69
2022/05/16 01:42:36;;;;;;;2.60;0.73;;;13.70;96.80;;;;;;5045710;28;20051;-69
2022/05/16 01:45:02;;;;;;;1.50;1.00;;;13.70;96.70;;;;;;5031938;28;20103;-69
2022/05/16 01:47:27;;;;;;;3.35;0.73;;;13.70;96.80;;;;;;5045638;28;20033;-68
2022/05/16 01:49:53;;;;;;;2.65;1.00;;;13.60;96.70;;;;;;5047754;28;20402;-68
2022/05/16 01:52:19;;;;;;;2.33;1.00;;;13.60;96.60;;;;;;5036065;28;20137;-68
2022/05/16 01:54:44;;;;;;;1.35;0.70;;;13.60;96.70;;;;;;5045249;28;20049;-68
2022/05/16 01:57:10;;;;;;;1.73;0.90;;;13.60;96.60;;;;;;5047692;28;20048;-69
2022/05/16 01:59:35;;;;;;;1.05;0.60;;;13.60;96.70;;;;;;5039516;28;20033;-68
2022/05/16 02:02:01;;;;;;;2.25;0.98;;;13.60;96.70;;;;;;5047354;28;20043;-68
2022/05/16 02:04:26;;;;;;;1.30;0.65;;;13.60;96.60;;;;;;5049765;28;20036;-68
2022/05/16 02:06:53;;;;;;;3.63;1.25;;;13.50;96.60;;;;;;5048420;28;20037;-69
2022/05/16 02:09:19;;;;;;;1.95;1.00;;;13.50;96.60;;;;;;5047986;28;20098;-68
2022/05/16 02:11:44;;;;;;;2.10;0.90;;;13.50;96.60;;;;;;5046602;28;20033;-68
2022/05/16 02:14:10;;;;;;;0.88;0.63;;;13.50;96.50;;;;;;5051726;28;20048;-68
2022/05/16 02:16:35;;;;;;;1.95;1.00;;;13.50;96.50;;;;;;5068526;28;20405;-68
2022/05/16 02:19:01;;;;;;;2.05;0.88;;;13.50;96.50;;;;;;5052444;28;20043;-68
2022/05/16 02:26:55;;;;;;;2.53;1.23;;;13.40;96.60;;;;;;5048401;28;20033;-68
2022/05/16 02:29:21;;;;;;;1.65;1.08;;;13.40;96.70;;;;;;5065333;28;20043;-68
2022/05/16 02:31:47;;;;;;;1.98;1.05;;;13.30;96.70;;;;;;5051332;28;20117;-69
2022/05/16 02:34:14;;;;;;;2.17;1.02;;;13.30;96.70;;;;;;5068769;28;20024;-68
2022/05/16 02:36:39;;;;;;;3.53;1.30;;;13.30;96.80;;;;;;5069190;28;20084;-68
2022/05/16 02:39:05;;;;;;;1.42;0.90;;;13.30;96.70;;;;;;5045766;28;20444;-68
2022/05/16 02:41:30;;;;;;;2.97;1.13;;;13.20;96.90;;;;;;5052142;28;20044;-68
2022/05/16 02:43:56;;;;;;;4.82;0.77;;;13.20;96.90;;;;;;5047026;28;20041;-68
2022/05/16 02:46:22;;;;;;;1.65;0.82;;;13.20;97.00;;;;;;5053167;28;20044;-68
2022/05/16 02:48:48;;;;;;;2.40;1.17;;;13.20;97.00;;;;;;5067439;28;20037;-68
2022/05/16 02:51:13;;;;;;;2.50;0.95;;;13.10;97.10;;;;;;5068955;28;20246;-68
2022/05/16 02:53:39;;;;;;;2.53;1.02;;;13.10;97.10;;;;;;5029745;28;20044;-68
2022/05/16 02:56:05;;;;;;;1.30;0.70;;;13.10;97.10;;;;;;5067880;28;20033;-68
2022/05/16 02:58:30;;;;;;;1.95;0.90;;;13.10;97.20;;;;;;5049274;28;20048;-68
2022/05/16 03:00:56;;;;;;;1.98;0.95;;;13.10;97.10;;;;;;5048942;28;20066;-68
2022/05/16 03:03:21;;;;;;;1.63;0.82;;;13.00;97.10;;;;;;5047008;28;20040;-68
2022/05/16 03:05:47;;;;;;;4.53;1.05;;;13.00;97.20;;;;;;5050457;28;20119;-68
2022/05/16 03:08:12;;;;;;;3.45;1.00;;;13.00;97.20;;;;;;5063815;28;20115;-68
2022/05/16 03:10:38;;;;;;;1.40;0.68;;;12.90;97.20;;;;;;5046021;28;20055;-68
2022/05/16 03:13:04;;;;;;;2.70;0.82;;;13.00;97.20;;;;;;5049040;28;20071;-68
2022/05/16 03:15:30;;;;;;;1.73;1.00;;;13.00;97.20;;;;;;5071534;28;20097;-68
2022/05/16 03:17:56;;;;;;;2.67;0.80;;;12.90;97.20;;;;;;5050058;28;20555;-68
2022/05/16 03:20:21;;;;;;;4.82;1.00;;;12.90;97.10;;;;;;5048378;28;20037;-68
2022/05/16 03:22:47;;;;;;;2.80;1.10;;;12.90;97.20;;;;;;5048955;28;20430;-68
2022/05/16 03:25:13;;;;;;;1.92;0.90;;;12.90;97.20;;;;;;5035354;28;20569;-68
2022/05/16 03:27:39;;;;;;;2.25;1.20;;;12.90;97.10;;;;;;5072107;28;20093;-68
2022/05/16 03:30:09;;;;;;;3.83;1.20;;;12.90;97.20;;;;;;5051556;28;20078;-68
2022/05/16 03:32:34;;;;;;;1.75;0.88;;;12.90;97.30;;;;;;5052552;28;20567;-69
2022/05/16 03:35:00;;;;;;;1.67;0.80;;;12.80;97.10;;;;;;5053045;28;20037;-68
2022/05/16 03:37:25;;;;;;;1.20;0.70;;;12.80;97.10;;;;;;5033817;28;20105;-68
2022/05/16 03:42:35;;;;;;;1.90;0.80;;;12.80;97.00;;;;;;5052505;28;20083;-68
2022/05/16 03:45:01;;;;;;;1.52;0.80;;;12.80;97.00;;;;;;5055549;28;20060;-68
2022/05/16 03:47:27;;;;;;;1.35;0.65;;;12.80;97.00;;;;;;5071855;28;20036;-68
2022/05/16 03:49:52;;;;;;;2.53;0.85;;;12.80;96.90;;;;;;5053921;28;20437;-68
2022/05/16 03:52:18;;;;;;;3.53;0.98;;;12.80;97.00;;;;;;5054184;28;20039;-68
2022/05/16 03:54:44;;;;;;;2.72;0.85;;;12.80;97.00;;;;;;5067992;28;20565;-68
2022/05/16 03:57:10;;;;;;;1.23;0.65;;;12.70;96.90;;;;;;5070914;28;20127;-68
2022/05/16 03:59:35;;;;;;;1.52;0.60;;;12.70;96.90;;;;;;5070040;28;20044;-68
2022/05/16 04:02:01;;;;;;;3.25;1.02;;;12.70;96.90;;;;;;5044624;28;20051;-68
2022/05/16 04:04:27;;;;;;;2.72;0.50;;;12.70;96.90;;;;;;5068391;28;20029;-68
2022/05/16 04:06:54;;;;;;;1.75;0.88;;;12.70;96.90;;;;;;5047849;28;20093;-68
2022/05/16 04:09:20;;;;;;;0.93;0.55;;;12.70;97.00;;;;;;5036764;28;20441;-68
2022/05/16 04:11:46;;;;;;;1.63;0.90;;;12.70;97.00;;;;;;5055238;28;20041;-68
2022/05/16 04:14:11;;;;;;;1.88;0.73;;;12.70;97.00;;;;;;5050395;28;20064;-68
2022/05/16 04:16:38;;;;;;;2.10;1.02;;;12.70;96.90;;;;;;5050384;28;20123;-68
2022/05/16 04:19:06;;;;;;;1.05;0.80;;;12.70;96.90;;;;;;5052567;28;20575;-68
2022/05/16 04:21:32;;;;;;;1.02;0.60;;;12.70;97.00;;;;;;5041242;28;20033;-68
2022/05/16 04:23:58;;;;;;;1.25;0.90;;;12.80;97.00;;;;;;5067200;28;20043;-68
2022/05/16 04:26:23;;;;;;;2.92;0.80;;;12.80;96.80;;;;;;5051563;28;20032;-68
2022/05/16 04:28:49;;;;;;;1.45;0.70;;;12.80;96.80;;;;;;5055024;28;20032;-68
2022/05/16 04:31:14;;;;;;;1.45;0.73;;;12.80;96.60;;;;;;5073285;28;20071;-68
2022/05/16 04:33:40;;;;;;;1.95;0.80;;;12.80;96.60;;;;;;5052950;28;20028;-68
2022/05/16 04:36:06;;;;;;;1.90;0.93;;;12.90;96.60;;;;;;5067768;28;20397;-68
2022/05/16 04:38:32;;;;;;;1.98;1.10;;;12.90;96.50;;;;;;5054714;28;20068;-68
2022/05/16 04:43:42;;;;;;;2.90;1.00;;;12.90;96.40;;;;;;5051537;28;20525;-68
2022/05/16 04:46:08;;;;;;;1.20;0.82;;;12.90;96.30;;;;;;5048796;28;20131;-68
2022/05/16 04:48:34;;;;;;;2.95;1.20;;;12.90;96.40;;;;;;5055028;28;20040;-68
2022/05/16 04:51:00;;;;;;;2.00;1.02;;;12.90;96.30;;;;;;5052740;28;20409;-69
2022/05/16 04:53:25;;;;;;;1.83;0.80;;;12.90;96.30;;;;;;5071373;28;20028;-68
2022/05/16 04:55:52;;;;;;;1.20;0.73;;;13.00;96.40;;;;;;5049914;28;20119;-69
2022/05/16 04:58:17;;;;;;;4.60;1.00;;;12.90;96.40;;;;;;5048621;28;20032;-68
2022/05/16 05:00:43;;;;;;;1.65;0.68;;;12.90;96.30;;;;;;5071048;28;20127;-69
2022/05/16 05:03:08;;;;;;;1.80;0.70;;;12.90;96.50;;;;;;5049004;28;20041;-69
2022/05/16 05:05:35;;;;;;;2.22;1.00;;;12.90;96.50;;;;;;5048713;28;20032;-68
2022/05/16 05:08:01;;;;;;;1.63;1.05;;;12.90;96.50;;;;;;5055534;28;20169;-69
2022/05/16 05:16:09;;;;;;;2.60;1.02;;;12.90;96.70;;;;;;5055332;28;20044;-68
2022/05/16 05:18:35;;;;;;;2.25;1.08;;;12.90;97.00;;;;;;5053384;28;20081;-69
2022/05/16 05:21:01;;;;;;;2.90;1.20;;;12.90;96.70;;;;;;5051678;28;20487;-69
2022/05/16 05:23:26;;;;;;;1.85;0.82;;;13.00;96.80;;;;;;5048249;28;20055;-68
2022/05/16 05:25:52;;;;;;;2.15;0.88;;;13.00;96.80;;;;;;5034283;28;20529;-68
2022/05/16 05:28:18;;;;;;;2.92;1.00;;;13.10;96.70;;;;;;5075106;28;20048;-68
2022/05/16 05:30:44;;;;;;;1.10;0.68;;;13.20;96.70;;;;;;5048503;28;20051;-68
2022/05/16 05:33:09;;;;;;;1.27;0.73;;;13.20;96.50;;;;;;5049870;28;20036;-69
2022/05/16 05:35:35;;;;;;;1.50;1.00;;;13.20;96.50;;;;;;5067498;28;20626;-69
2022/05/16 05:38:01;;;;;;;1.38;0.70;;;13.20;96.50;;;;;;5051417;28;20609;-69
2022/05/16 05:40:26;;;;;;;1.38;0.85;;;13.30;96.40;;;;;;5076248;28;20058;-68
2022/05/16 05:42:52;;;;;;;6.30;1.27;;;13.20;96.30;;;;;;5049682;28;20497;-69
2022/05/16 05:45:18;;;;;;;4.65;1.00;;;13.30;96.30;;;;;;5035970;28;20727;-68
2022/05/16 05:47:43;;;;;;;2.17;0.90;;;13.30;96.30;;;;;;5070743;28;20089;-68
2022/05/16 05:50:09;;;;;;;2.75;1.00;;;13.30;96.30;;;;;;5056121;28;20040;-69
2022/05/16 05:52:35;;;;;;;2.33;1.10;;;13.40;96.30;;;;;;5066914;28;20032;-69
2022/05/16 05:55:02;;;;;;;2.05;1.17;;;13.40;96.20;;;;;;5042080;28;20086;-68
2022/05/16 05:57:27;;;;;;;2.30;1.02;;;13.50;96.20;;;;;;5055341;28;20047;-68
2022/05/16 05:59:54;;;;;;;2.38;0.93;;;13.50;96.00;;;;;;5049181;28;20641;-68
2022/05/16 06:02:21;;;;;;;1.05;0.60;;;13.50;96.10;;;;;;5051863;28;20131;-69
2022/05/16 06:04:47;;;;;;;4.07;1.42;;;13.50;96.20;;;;;;5050297;28;20397;-73
2022/05/16 06:07:13;;;;;;;1.27;0.77;;;13.60;96.10;;;;;;5049861;28;20032;-69
2022/05/16 06:09:39;;;;;;;4.90;1.10;;;13.70;96.00;;;;;;5054913;28;21600;-69
2022/05/16 06:12:06;;;;;;;1.70;0.90;;;13.70;95.80;;;;;;5050267;28;20047;-68
2022/05/16 06:14:32;;;;;;;2.35;1.00;;;13.80;95.80;;;;;;5052288;28;20513;-69
2022/05/16 06:16:58;;;;;;;2.42;1.00;;;13.80;95.80;;;;;;5048892;28;20047;-69
2022/05/16 06:19:24;;;;;;;2.63;1.40;;;13.80;95.70;;;;;;5058849;28;20044;-69
2022/05/16 06:21:50;;;;;;;2.22;1.13;;;13.90;95.70;;;;;;5054646;28;20040;-69
2022/05/16 06:27:02;;;;;;;1.10;0.75;;;14.20;95.90;;;;;;5058730;28;20043;-69
2022/05/16 06:29:28;;;;;;;2.08;0.77;;;14.70;94.80;;;;;;5070135;28;20047;-69
2022/05/16 06:31:54;;;;;;;2.22;1.05;;;15.40;93.20;;;;;;5053323;28;20521;-69
2022/05/16 06:34:20;;;;;;;3.65;1.30;;;16.00;92.10;;;;;;5068034;28;20127;-69
2022/05/16 06:36:46;;;;;;;1.50;0.73;;;16.80;90.60;;;;;;5072270;28;20032;-69
2022/05/16 06:39:11;;;;;;;2.88;1.10;;;17.60;88.10;;;;;;5054909;28;20024;-69
2022/05/16 06:41:37;;;;;;;2.78;1.10;;;18.40;83.20;;;;;;5052315;28;20051;-69
2022/05/16 06:44:03;;;;;;;1.45;0.63;;;19.00;79.50;;;;;;5059971;28;20032;-69
2022/05/16 06:46:29;;;;;;;3.08;1.10;;;19.00;80.60;;;;;;5055922;28;20035;-69
2022/05/16 06:48:54;;;;;;;1.63;0.85;;;18.60;83.70;;;;;;5073258;28;20115;-69
2022/05/16 06:51:20;;;;;;;1.85;0.90;;;18.20;86.80;;;;;;5077130;28;20138;-69
2022/05/16 06:53:46;;;;;;;1.95;0.90;;;17.80;89.60;;;;;;5063892;28;20040;-69
2022/05/16 06:56:12;;;;;;;3.45;1.08;;;17.50;90.70;;;;;;5042960;28;20078;-68
2022/05/16 06:58:37;;;;;;;3.83;0.90;;;17.20;91.30;;;;;;5049293;28;20036;-69
2022/05/16 07:01:04;;;;;;;3.60;1.13;;;17.00;91.50;;;;;;5054048;28;20496;-69
2022/05/16 07:03:30;;;;;;;3.75;0.88;;;16.80;91.90;;;;;;5047606;28;20032;-69
2022/05/16 07:05:56;;;;;;;2.90;1.17;;;16.70;92.10;;;;;;5049113;28;20044;-69
2022/05/16 07:08:22;;;;;;;2.35;1.30;;;16.60;91.90;;;;;;5054629;28;20501;-69
2022/05/16 07:10:49;;;;;;;3.40;1.10;;;16.50;91.80;;;;;;5070547;28;20644;-68
2022/05/16 07:13:14;;;;;;;2.50;0.75;;;16.50;91.90;;;;;;5072184;28;20068;-71
2022/05/16 07:15:41;;;;;;;1.30;0.60;;;16.40;92.00;;;;;;5052078;28;20592;-69
2022/05/16 07:18:06;;;;;;;1.88;0.80;;;16.50;91.90;;;;;;5049854;28;20039;-68
2022/05/16 07:20:32;;;;;;;3.22;0.93;;;16.40;91.70;;;;;;5056614;28;20928;-68
2022/05/16 07:22:58;;;;;;;2.05;0.88;;;16.40;91.90;;;;;;5051580;28;20131;-68
2022/05/16 07:25:25;;;;;;;1.60;0.80;;;16.40;91.90;;;;;;5035417;28;20308;-68
2022/05/16 07:27:57;;;;;;;1.88;0.73;;;16.50;91.70;;;;;;5048236;28;20033;-68
2022/05/16 07:30:28;;;;;;;2.08;1.00;;;16.50;91.60;;;;;;5051439;28;20122;-67
2022/05/16 07:32:55;;;;;;;0.88;0.50;;;16.60;91.20;;;;;;5053027;28;20036;-71
2022/05/16 07:35:25;;;;;;;2.53;0.82;;;16.60;91.00;;;;;;5038938;28;20039;-68
2022/05/16 07:37:53;;;;;;;2.10;0.80;;;16.70;91.00;;;;;;5073914;28;20098;-68
2022/05/16 07:40:21;;;;;;;2.20;1.10;;;16.70;90.80;;;;;;5035948;28;20601;-68
2022/05/16 07:42:48;;;;;;;1.65;0.75;;;16.70;90.70;;;;;;5055154;28;20119;-68
2022/05/16 07:45:14;;;;;;;2.10;0.77;;;16.80;90.60;;;;;;5072068;28;20055;-68
2022/05/16 07:47:39;;;;;;;2.90;0.95;;;16.90;90.20;;;;;;5071569;28;20344;-68
2022/05/16 07:50:07;;;;;;;1.45;0.75;;;17.00;90.20;;;;;;5071147;28;20229;-68
2022/05/16 07:52:33;;;;;;;3.92;1.02;;;17.00;90.20;;;;;;5051350;28;20119;-68
2022/05/16 07:54:59;;;;;;;2.15;0.85;;;17.00;89.90;;;;;;5069744;28;20550;-68
2022/05/16 07:57:25;;;;;;;4.10;0.63;;;17.10;90.00;;;;;;5074527;28;20036;-69
2022/05/16 07:59:50;;;;;;;1.85;0.80;;;17.20;89.50;;;;;;5051984;28;20413;-68
2022/05/16 08:02:16;;;;;;;2.47;1.17;;;17.20;88.90;;;;;;5051153;28;20115;-69
2022/05/16 08:04:42;;;;;;;1.42;0.70;;;17.30;89.00;;;;;;5052077;28;20117;-68
2022/05/16 08:07:08;;;;;;;1.63;1.08;;;17.40;88.50;;;;;;5033689;28;20037;-68
2022/05/16 08:12:38;;;;;;;1.95;1.00;;;17.50;88.30;;;;;;5073584;28;20040;-68
2022/05/16 08:15:05;;;;;;;2.30;0.88;;;17.60;86.00;;;;;;5041629;28;20065;-68
2022/05/16 08:17:31;;;;;;;2.55;0.80;;;17.60;87.40;;;;;;5056735;28;20055;-67
2022/05/16 08:19:57;;;;;;;1.48;0.70;;;17.60;87.50;;;;;;5076330;28;20036;-68
2022/05/16 08:22:31;;;;;;;2.47;0.90;;;17.70;87.20;;;;;;5076495;28;20028;-68
2022/05/16 08:24:57;;;;;;;2.65;0.77;;;17.80;85.40;;;;;;5058369;28;20070;-68
2022/05/16 08:27:23;;;;;;;5.13;0.95;;;17.90;86.00;;;;;;5071320;28;20125;-67
2022/05/16 08:29:48;;;;;;;2.53;1.00;;;18.00;85.90;;;;;;5061546;28;20464;-68
2022/05/16 08:32:15;;;;;;;1.35;0.82;;;18.10;85.90;;;;;;5057580;28;20040;-68
2022/05/16 08:34:42;;;;;;;1.27;0.70;;;18.10;85.60;;;;;;5060403;28;20043;-68
2022/05/16 08:39:53;;;;;;;1.23;0.77;;;18.20;85.30;;;;;;5058377;28;20166;-68
2022/05/16 08:42:35;;;;;;;1.33;0.70;;;18.30;85.00;;;;;;5056654;28;20032;-68
2022/05/16 08:45:04;;;;;;;2.17;1.00;;;18.30;82.40;;;;;;5051463;28;20037;-68
2022/05/16 08:47:52;;;;;;;1.20;0.70;;;18.40;84.40;;;;;;5058495;28;20056;-68
2022/05/16 08:50:28;;;;;;;1.95;0.65;;;18.40;83.70;;;;;;5075672;28;20043;-68
2022/05/16 08:53:02;;;;;;;3.75;0.73;;;18.50;84.50;;;;;;5074927;28;20449;-68
2022/05/16 08:55:48;;;;;;;1.95;0.90;;;18.50;84.90;;;;;;5059151;28;21129;-68
2022/05/16 08:58:35;;;;;;;2.92;0.90;;;18.60;85.20;;;;;;5058842;28;20146;-68
2022/05/16 09:01:02;;;;;;;2.58;1.13;;;18.70;83.20;;;;;;5077138;28;20040;-68
2022/05/16 09:03:34;;;;;;;3.00;0.80;;;18.80;83.80;;;;;;5072775;28;20037;-68
2022/05/16 09:06:05;;;;;;;2.35;0.90;;;18.90;83.00;;;;;;5075318;28;20028;-68
2022/05/16 09:09:08;;;;;;;2.72;0.93;;;19.00;83.90;;;;;;5053963;28;20051;-68
2022/05/16 09:11:52;;;;;;;3.08;0.90;;;19.20;81.30;;;;;;5040834;28;20508;-68
2022/05/16 09:14:40;;;;;;;3.00;1.02;;;19.30;81.40;;;;;;5057667;28;20063;-68
2022/05/16 09:17:19;;;;;;;3.33;0.90;;;19.30;82.10;;;;;;5077897;28;20032;-68
2022/05/16 09:19:55;;;;;;;2.80;0.80;;;19.40;81.70;;;;;;5058584;28;20044;-68
2022/05/16 09:22:28;;;;;;;1.38;0.80;;;19.50;81.90;;;;;;5037533;28;20082;-68
2022/05/16 09:25:13;;;;;;;1.70;1.00;;;19.50;82.40;;;;;;5073136;28;20586;-68
2022/05/16 09:30:27;;;;;;;2.15;0.82;;;19.70;82.50;;;;;;5072721;28;20178;-68
2022/05/16 09:32:59;;;;;;;2.35;0.90;;;19.80;82.60;;;;;;5052050;28;20034;-68
2022/05/16 09:35:37;;;;;;;1.45;0.68;;;19.90;81.30;;;;;;5074501;28;20101;-68
2022/05/16 09:38:03;;;;;;;1.25;0.70;;;20.00;80.20;;;;;;5072681;28;20086;-68
2022/05/16 09:40:35;;;;;;;1.85;0.85;;;20.10;80.90;;;;;;5074572;28;20062;-68
2022/05/16 09:43:06;;;;;;;5.97;0.75;;;20.20;79.40;;;;;;5044751;28;20043;-68
2022/05/16 09:45:33;;;;;;;3.30;1.13;;;20.30;79.90;;;;;;5055978;28;20032;-68
2022/05/16 09:47:59;;;;;;;1.70;0.80;;;20.40;80.20;;;;;;5052088;28;20059;-68
2022/05/16 09:50:30;;;;;;;2.40;0.95;;;20.50;79.50;;;;;;5051155;28;21130;-68
2022/05/16 09:53:09;;;;;;;1.98;0.70;;;20.60;79.10;;;;;;5071794;28;20047;-68
2022/05/16 09:55:46;;;;;;;1.85;0.73;;;20.60;77.20;;;;;;5067050;28;20397;-68
2022/05/16 09:58:20;;;;;;;2.17;0.80;;;20.70;78.20;;;;;;5073391;28;20050;-67
2022/05/16 10:01:00;;;;;;;2.03;0.82;;;20.70;78.50;;;;;;5072302;28;20379;-68
2022/05/16 10:03:30;;;;;;;1.90;0.88;;;20.80;76.20;;;;;;5049128;28;20043;-68
2022/05/16 10:06:10;;;;;;;3.88;1.13;;;20.90;78.00;;;;;;5048649;28;20568;-68
2022/05/16 10:08:38;;;;;;;2.42;0.80;;;20.90;77.00;;;;;;5048554;28;20350;-68
2022/05/16 10:11:17;;;;;;;2.03;0.88;;;21.00;77.60;;;;;;5072872;28;20723;-68
2022/05/16 10:13:43;;;;;;;3.05;1.10;;;21.10;76.20;;;;;;5042001;28;20397;-68
2022/05/16 10:16:11;;;;;;;1.55;0.90;;;21.10;76.40;;;;;;5069243;28;20047;-68
2022/05/16 10:18:44;;;;;;;3.00;1.10;;;21.20;76.00;;;;;;5052513;28;20532;-68
2022/05/16 10:21:19;;;;;;;1.27;0.88;;;21.20;74.50;;;;;;5052269;28;20044;-68
2022/05/16 10:23:46;;;;;;;2.95;1.00;;;21.20;74.00;;;;;;5069589;28;20139;-68
2022/05/16 10:26:20;;;;;;;2.42;0.90;;;21.30;75.60;;;;;;5060648;28;20059;-68
2022/05/16 10:28:51;;;;;;;2.85;0.80;;;21.40;74.80;;;;;;5070082;28;20028;-68
2022/05/16 10:34:20;;;;;;;2.13;0.82;;;21.50;72.90;;;;;;5050912;28;20397;-69
2022/05/16 10:36:50;;;;;;;6.43;1.20;;;21.50;71.60;;;;;;5069657;28;20041;-69
2022/05/16 10:39:23;;;;;;;2.45;1.00;;;21.60;71.80;;;;;;5056330;28;20067;-69
2022/05/16 10:42:11;;;;;;;3.15;0.98;;;21.60;72.10;;;;;;5050150;28;20439;-68
2022/05/16 10:44:48;;;;;;;3.40;0.90;;;21.70;68.20;;;;;;5048629;28;20054;-68
2022/05/16 10:47:26;;;;;;;2.38;0.80;;;21.70;70.20;;;;;;5051105;28;20032;-68
2022/05/16 10:50:06;;;;;;;1.75;1.00;;;21.80;71.50;;;;;;5050619;28;20490;-68
2022/05/16 10:52:38;;;;;;;1.48;0.90;;;21.80;69.80;;;;;;5066424;28;20089;-69
2022/05/16 10:55:05;;;;;;;2.10;0.85;;;21.80;71.30;;;;;;5042129;28;20044;-68
2022/05/16 10:58:01;;;;;;;4.05;1.02;;;21.90;71.60;;;;;;5046945;28;20044;-68
2022/05/16 11:01:02;;;;;;;3.10;1.20;;;21.90;68.40;;;;;;5063916;28;20756;-69
2022/05/16 11:03:27;;;;;;;2.08;1.23;;;21.90;69.30;;;;;;5026230;28;20045;-68
2022/05/16 11:06:31;;;;;;;4.53;1.10;;;21.90;71.80;;;;;;5052950;28;20397;-68
2022/05/16 11:09:09;;;;;;;3.80;1.20;;;21.90;69.20;;;;;;5043137;28;20036;-68
2022/05/16 11:11:57;;;;;;;4.38;1.30;;;21.90;69.80;;;;;;5051803;28;20551;-68
2022/05/16 11:14:30;;;;;;;1.45;0.85;;;21.80;69.70;;;;;;5050713;28;20044;-68
2022/05/16 11:17:07;;;;;;;2.22;0.80;;;21.80;73.10;;;;;;5053884;28;20147;-68
2022/05/16 11:19:55;;;;;;;0.90;0.60;;;21.80;73.30;;;;;;5048361;28;20414;-68
2022/05/16 11:22:42;;;;;;;2.42;1.10;;;21.70;73.70;;;;;;5037226;28;20037;-68
2022/05/16 11:25:41;;;;;;;3.83;1.20;;;21.70;73.30;;;;;;5054618;28;20130;-68
2022/05/16 11:28:19;;;;;;;1.67;0.90;;;21.60;74.10;;;;;;5052882;28;20065;-68
2022/05/16 11:30:51;;;;;;;2.78;1.20;;;21.60;76.20;;;;;;5071372;28;20043;-68
2022/05/16 11:33:26;;;;;;;4.18;1.10;;;21.50;77.50;;;;;;5051924;28;20040;-68
2022/05/16 11:36:04;;;;;;;2.17;1.15;;;21.40;79.60;;;;;;5067771;28;20060;-68
2022/05/16 11:38:35;;;;;;;3.10;1.20;;;21.30;81.40;;;;;;5051449;28;20047;-68
2022/05/16 11:41:12;;;;;;;3.05;1.10;;;21.10;82.90;;;;;;5069469;28;20081;-68
2022/05/16 11:43:47;;;;;;;3.00;1.02;;;21.00;87.30;;;;;;5066209;28;20068;-68
2022/05/16 11:46:23;;;;;;;2.72;1.20;;;20.90;87.50;;;;;;5047522;28;20033;-68
2022/05/16 11:49:16;;;;;;;3.63;1.60;;;20.80;88.10;;;;;;5041461;28;20036;-68
2022/05/16 11:51:49;;;;;;;2.90;1.73;;;20.80;90.70;;;;;;5054183;28;20048;-68
2022/05/16 11:54:20;;;;;;;1.92;1.10;;;20.70;91.50;;;;;;5051204;28;20051;-68
2022/05/16 12:03:03;;;;;;;2.10;1.23;;;20.70;93.40;;;;;;5047326;28;20068;-68
2022/05/16 12:05:31;;;;;;;2.70;1.10;;;20.70;92.70;;;;;;5046451;28;20072;-68
2022/05/16 12:08:31;;;;;;;3.85;1.25;;;20.70;92.90;;;;;;5057231;28;20580;-68
2022/05/16 12:11:02;;;;;;;2.85;1.65;;;20.80;95.10;;;;;;5050273;28;20028;-69
2022/05/16 12:13:38;;;;;;;3.35;1.58;;;20.80;94.50;;;;;;5054142;28;20044;-69
2022/05/16 12:16:14;;;;;;;4.07;1.33;;;20.80;95.00;;;;;;5035168;28;20054;-68
2022/05/16 12:19:08;;;;;;;5.53;2.25;;;20.80;95.90;;;;;;5049910;28;20032;-68
2022/05/16 12:21:35;;;;;;;2.25;1.52;;;20.90;94.80;;;;;;5043077;28;20052;-68
2022/05/16 12:24:06;;;;;;;2.35;1.40;;;20.90;94.70;;;;;;5068688;28;20095;-68
2022/05/16 12:26:52;;;;;;;2.22;1.38;;;20.90;94.90;;;;;;5054807;28;20554;-68
2022/05/16 12:29:21;;;;;;;5.80;1.33;;;21.00;94.50;;;;;;5071618;28;20039;-69
2022/05/16 12:31:49;;;;;;;4.90;1.27;;;20.90;94.30;;;;;;5069020;28;20142;-69
2022/05/16 12:34:43;;;;;;;1.77;0.98;;;20.90;94.10;;;;;;5056840;28;20093;-68
2022/05/16 12:37:13;;;;;;;3.38;1.63;;;20.90;94.90;;;;;;5052460;28;20044;-69
2022/05/16 12:39:49;;;;;;;2.67;1.10;;;20.80;93.90;;;;;;5052177;28;20036;-69
2022/05/16 12:42:32;;;;;;;2.00;1.20;;;20.80;93.80;;;;;;5072241;28;20367;-68
2022/05/16 12:45:02;;;;;;;3.03;1.50;;;20.80;93.80;;;;;;5039901;28;20036;-69
2022/05/16 12:47:36;;;;;;;1.90;1.38;;;20.90;93.70;;;;;;5072585;28;20666;-69
2022/05/16 12:50:39;;;;;;;4.22;1.70;;;21.00;93.80;;;;;;5039071;28;20040;-69
2022/05/16 12:53:29;;;;;;;2.13;1.30;;;21.10;93.40;;;;;;5070902;28;20044;-68
2022/05/16 12:56:16;;;;;;;5.13;1.60;;;21.30;93.20;;;;;;5069518;28;20087;-69
2022/05/16 12:58:59;;;;;;;2.92;1.10;;;21.50;93.00;;;;;;5071460;28;20537;-68
2022/05/16 13:01:37;;;;;;;3.75;1.48;;;21.70;91.90;;;;;;5053355;28;20465;-69
2022/05/16 13:04:20;;;;;;;2.50;1.13;;;21.90;91.30;;;;;;5069425;28;20040;-69
2022/05/16 13:07:09;;;;;;;1.50;0.80;;;22.10;90.80;;;;;;5048383;28;20496;-69
2022/05/16 13:09:59;;;;;;;1.95;0.88;;;22.20;90.30;;;;;;5078581;28;20068;-69
2022/05/16 13:12:41;;;;;;;6.72;1.27;;;22.30;89.30;;;;;;5056566;28;20555;-69
2022/05/16 13:15:17;;;;;;;3.00;1.00;;;22.40;89.70;;;;;;5060851;28;20081;-69
2022/05/16 13:17:49;;;;;;;2.45;0.73;;;22.50;88.30;;;;;;5073499;28;20041;-69
2022/05/16 13:20:17;;;;;;;2.00;1.17;;;22.50;88.10;;;;;;5059637;28;20047;-69
2022/05/16 13:22:48;;;;;;;2.10;1.20;;;22.50;88.00;;;;;;5055447;28;20281;-69
2022/05/16 13:25:14;;;;;;;2.38;1.10;;;22.50;87.70;;;;;;5072266;28;20028;-68
2022/05/16 13:30:26;;;;;;;2.53;0.95;;;22.40;87.00;;;;;;5052501;28;20403;-69
2022/05/16 13:32:53;;;;;;;1.88;1.08;;;22.40;87.10;;;;;;5068434;28;20048;-68
2022/05/16 13:35:36;;;;;;;3.70;1.00;;;22.30;86.90;;;;;;5072069;28;20036;-69
2022/05/16 13:38:04;;;;;;;4.75;1.08;;;22.30;86.00;;;;;;5065450;28;20039;-69
2022/05/16 13:40:39;;;;;;;2.80;0.80;;;22.20;86.50;;;;;;5055602;28;20076;-69
2022/05/16 13:43:32;;;;;;;1.88;1.10;;;22.20;85.90;;;;;;5072891;28;20064;-69
2022/05/16 13:46:02;;;;;;;2.35;1.13;;;22.20;84.50;;;;;;5056250;28;20074;-69